createdAt,value
2018-04-27T00:02:07.682Z,12.50
2018-04-27T00:04:35.221Z,12.50
2018-04-27T00:07:02.746Z,12.30
2018-04-27T00:09:30.289Z,12.20
2018-04-27T00:11:58.648Z,12.20
2018-04-27T00:14:26.247Z,12.20
2018-04-27T00:16:53.839Z,12.20
2018-04-27T00:19:21.366Z,12.00
2018-04-27T00:21:49.688Z,12.10
2018-04-27T00:24:17.269Z,12.10
2018-04-27T00:26:44.816Z,12.00
2018-04-27T00:29:12.388Z,12.10
2018-04-27T00:31:39.955Z,12.10
2018-04-27T00:34:07.510Z,12.20
2018-04-27T00:36:35.066Z,12.10
2018-04-27T00:39:02.607Z,12.00
2018-04-27T00:41:30.215Z,11.90
2018-04-27T00:43:58.030Z,11.80
2018-04-27T00:46:25.555Z,11.90
2018-04-27T00:48:53.906Z,12.00
2018-04-27T00:51:22.216Z,12.00
2018-04-27T00:53:49.767Z,12.00
2018-04-27T00:56:18.394Z,12.00
2018-04-27T00:58:45.890Z,11.90
2018-04-27T01:01:14.352Z,12.00
2018-04-27T01:03:41.876Z,12.00
2018-04-27T01:06:09.553Z,12.00
2018-04-27T01:08:37.076Z,11.90
2018-04-27T01:11:04.618Z,11.90
2018-04-27T01:13:32.163Z,11.90
2018-04-27T01:15:59.738Z,11.90
2018-04-27T01:18:27.297Z,11.80
2018-04-27T01:20:54.807Z,12.00
2018-04-27T01:23:22.403Z,12.00
2018-04-27T01:25:49.929Z,12.00
2018-04-27T01:28:17.547Z,11.90
2018-04-27T01:30:45.834Z,11.70
2018-04-27T01:33:13.419Z,11.60
2018-04-27T01:35:40.976Z,11.70
2018-04-27T01:38:08.615Z,11.80
2018-04-27T01:40:36.186Z,11.80
2018-04-27T01:43:03.755Z,11.90
2018-04-27T01:45:32.147Z,11.90
2018-04-27T01:47:59.760Z,11.90
2018-04-27T01:50:27.316Z,11.90
2018-04-27T01:52:54.950Z,12.00
2018-04-27T01:55:26.880Z,12.00
2018-04-27T01:57:55.859Z,11.90
2018-04-27T02:00:23.390Z,11.90
2018-04-27T02:02:52.194Z,12.00
2018-04-27T02:05:20.490Z,12.00
2018-04-27T02:07:48.047Z,12.00
2018-04-27T02:10:15.622Z,11.90
2018-04-27T02:12:43.143Z,12.00
2018-04-27T02:15:11.780Z,11.60
2018-04-27T02:17:39.333Z,11.60
2018-04-27T02:20:06.906Z,11.60
2018-04-27T02:22:34.449Z,11.70
2018-04-27T02:25:02.003Z,11.60
2018-04-27T02:27:29.561Z,11.70
2018-04-27T02:29:57.132Z,11.70
2018-04-27T02:32:24.902Z,11.70
2018-04-27T02:34:52.752Z,11.60
2018-04-27T02:37:20.315Z,11.60
2018-04-27T02:39:47.889Z,11.60
2018-04-27T02:42:15.432Z,11.60
2018-04-27T02:44:43.071Z,11.50
2018-04-27T02:47:10.623Z,11.50
2018-04-27T02:49:38.164Z,11.50
2018-04-27T02:52:05.739Z,11.50
2018-04-27T02:54:33.292Z,11.60
2018-04-27T02:57:01.623Z,11.40
2018-04-27T02:59:29.192Z,11.40
2018-04-27T03:01:56.762Z,11.40
2018-04-27T03:04:24.321Z,11.30
2018-04-27T03:06:51.901Z,11.40
2018-04-27T03:09:19.455Z,11.40
2018-04-27T03:11:46.994Z,11.50
2018-04-27T03:14:14.582Z,11.50
2018-04-27T03:16:42.153Z,11.50
2018-04-27T03:19:09.702Z,11.40
2018-04-27T03:21:38.001Z,11.40
2018-04-27T03:24:05.578Z,11.40
2018-04-27T03:26:33.250Z,11.40
2018-04-27T03:29:01.801Z,11.40
2018-04-27T03:31:29.371Z,11.40
2018-04-27T03:33:57.533Z,11.30
2018-04-27T03:36:25.104Z,11.40
2018-04-27T03:38:52.722Z,11.40
2018-04-27T03:41:21.076Z,11.30
2018-04-27T03:43:48.931Z,11.30
2018-04-27T03:46:16.469Z,11.30
2018-04-27T03:48:44.020Z,11.30
2018-04-27T03:51:11.588Z,11.30
2018-04-27T03:53:39.146Z,11.30
2018-04-27T03:56:06.705Z,11.30
2018-04-27T03:58:34.259Z,11.30
2018-04-27T04:04:13.494Z,11.40
2018-04-27T04:06:41.029Z,11.30
2018-04-27T04:09:08.625Z,11.20
2018-04-27T04:11:37.223Z,11.20
2018-04-27T04:14:04.792Z,11.20
2018-04-27T04:16:32.345Z,11.20
2018-04-27T04:18:59.987Z,11.20
2018-04-27T04:21:28.315Z,11.30
2018-04-27T04:23:55.890Z,11.30
2018-04-27T04:26:23.422Z,11.30
2018-04-27T04:28:50.964Z,11.30
2018-04-27T04:31:18.525Z,11.30
2018-04-27T04:33:46.051Z,11.30
2018-04-27T04:36:13.628Z,11.20
2018-04-27T04:38:41.206Z,11.20
2018-04-27T04:41:08.746Z,11.10
2018-04-27T04:43:36.323Z,11.10
2018-04-27T04:46:04.663Z,11.00
2018-04-27T04:48:32.199Z,11.00
2018-04-27T04:50:59.768Z,11.00
2018-04-27T04:53:27.291Z,11.00
2018-04-27T04:55:54.842Z,10.90
2018-04-27T04:58:22.438Z,10.80
2018-04-27T05:00:50.009Z,10.70
2018-04-27T05:03:17.607Z,10.80
2018-04-27T05:05:45.233Z,11.00
2018-04-27T05:08:13.366Z,11.00
2018-04-27T05:10:41.023Z,11.00
2018-04-27T05:13:08.565Z,11.00
2018-04-27T05:15:36.111Z,11.00
2018-04-27T05:18:11.316Z,11.10
2018-04-27T05:20:38.848Z,11.10
2018-04-27T05:23:06.528Z,11.20
2018-04-27T05:25:34.095Z,11.10
2018-04-27T05:28:01.619Z,11.10
2018-04-27T05:30:29.243Z,11.20
2018-04-27T05:33:04.642Z,11.40
2018-04-27T05:35:32.283Z,11.40
2018-04-27T05:37:59.874Z,11.40
2018-04-27T05:40:27.468Z,11.40
2018-04-27T05:42:55.032Z,11.60
2018-04-27T05:45:23.360Z,11.70
2018-04-27T05:47:50.972Z,11.70
2018-04-27T05:50:18.534Z,11.70
2018-04-27T05:52:46.157Z,11.80
2018-04-27T05:55:13.778Z,11.90
2018-04-27T05:57:41.324Z,11.90
2018-04-27T06:00:10.455Z,11.90
2018-04-27T06:02:38.002Z,11.90
2018-04-27T06:05:05.595Z,11.90
2018-04-27T06:07:33.204Z,11.90
2018-04-27T06:10:00.937Z,11.90
2018-04-27T06:12:28.568Z,12.00
2018-04-27T06:14:56.128Z,12.10
2018-04-27T06:17:23.712Z,12.10
2018-04-27T06:19:54.011Z,12.30
2018-04-27T06:22:21.758Z,12.60
2018-04-27T06:24:50.274Z,12.70
2018-04-27T06:27:17.823Z,12.70
2018-04-27T06:29:45.588Z,12.90
2018-04-27T06:32:14.408Z,13.00
2018-04-27T06:34:42.444Z,13.10
2018-04-27T06:37:10.054Z,13.20
2018-04-27T06:39:37.625Z,13.10
2018-04-27T06:42:05.929Z,13.40
2018-04-27T06:44:33.803Z,13.40
2018-04-27T06:47:01.463Z,13.50
2018-04-27T06:49:29.337Z,13.70
2018-04-27T06:51:56.951Z,13.70
2018-04-27T06:54:25.097Z,13.80
2018-04-27T06:56:52.642Z,13.90
2018-04-27T06:59:20.489Z,14.00
2018-04-27T07:01:48.259Z,14.30
2018-04-27T07:04:16.043Z,14.50
2018-04-27T07:06:43.687Z,14.80
2018-04-27T07:09:11.264Z,15.00
2018-04-27T07:11:38.830Z,15.30
2018-04-27T07:14:06.532Z,15.50
2018-04-27T07:16:34.135Z,15.70
2018-04-27T07:19:01.838Z,15.90
2018-04-27T07:21:30.188Z,16.20
2018-04-27T07:23:57.748Z,16.20
2018-04-27T07:26:25.501Z,16.40
2018-04-27T07:28:53.436Z,16.60
2018-04-27T07:31:21.065Z,16.80
2018-04-27T07:33:48.793Z,17.00
2018-04-27T07:36:16.438Z,17.20
2018-04-27T07:38:44.028Z,17.30
2018-04-27T07:41:11.783Z,17.40
2018-04-27T07:43:39.355Z,17.60
2018-04-27T07:46:07.027Z,17.60
2018-04-27T07:48:35.000Z,17.70
2018-04-27T07:51:02.586Z,17.80
2018-04-27T07:53:30.208Z,17.90
2018-04-27T07:55:57.779Z,17.90
2018-04-27T07:58:25.340Z,17.90
2018-04-27T08:00:52.887Z,17.90
2018-04-27T08:03:20.961Z,17.90
2018-04-27T08:05:48.562Z,18.00
2018-04-27T08:08:16.328Z,18.00
2018-04-27T08:10:44.043Z,18.00
2018-04-27T08:13:11.609Z,18.20
2018-04-27T08:15:39.204Z,18.20
2018-04-27T08:18:07.641Z,18.20
2018-04-27T08:20:35.403Z,18.20
2018-04-27T08:23:02.969Z,18.20
2018-04-27T08:25:30.775Z,18.20
2018-04-27T08:27:58.411Z,18.30
2018-04-27T08:30:25.979Z,18.30
2018-04-27T08:32:53.856Z,18.30
2018-04-27T08:35:21.507Z,18.30
2018-04-27T08:37:49.100Z,18.30
2018-04-27T08:40:16.818Z,18.40
2018-04-27T08:42:44.395Z,18.40
2018-04-27T08:45:11.968Z,18.50
2018-04-27T08:47:39.557Z,18.50
2018-04-27T08:50:07.311Z,18.50
2018-04-27T08:52:35.655Z,18.50
2018-04-27T08:55:03.264Z,18.50
2018-04-27T08:57:30.848Z,18.60
2018-04-27T08:59:58.618Z,18.60
2018-04-27T09:02:27.483Z,18.50
2018-04-27T09:04:55.046Z,18.50
2018-04-27T09:07:22.705Z,18.50
2018-04-27T09:09:50.410Z,18.50
2018-04-27T09:12:19.685Z,18.60
2018-04-27T09:14:47.287Z,18.60
2018-04-27T09:17:15.120Z,18.50
2018-04-27T09:19:42.984Z,18.50
2018-04-27T09:22:10.528Z,18.30
2018-04-27T09:24:38.197Z,18.30
2018-04-27T09:27:06.891Z,18.50
2018-04-27T09:29:35.038Z,18.40
2018-04-27T09:32:03.630Z,18.50
2018-04-27T09:34:31.160Z,18.50
2018-04-27T09:36:58.916Z,18.50
2018-04-27T09:39:26.516Z,18.60
2018-04-27T09:41:54.081Z,18.70
2018-04-27T09:44:21.687Z,18.70
2018-04-27T09:46:49.285Z,18.70
2018-04-27T09:49:16.906Z,18.70
2018-04-27T09:51:44.484Z,18.70
2018-04-27T09:54:12.823Z,18.70
2018-04-27T09:56:40.448Z,18.60
2018-04-27T09:59:07.984Z,18.70
2018-04-27T10:01:35.596Z,18.70
2018-04-27T10:04:03.266Z,18.70
2018-04-27T10:06:31.697Z,18.70
2018-04-27T10:08:59.516Z,18.80
2018-04-27T10:11:27.079Z,18.80
2018-04-27T10:13:54.698Z,18.70
2018-04-27T10:16:22.235Z,18.80
2018-04-27T10:18:50.723Z,18.70
2018-04-27T10:21:18.554Z,18.70
2018-04-27T10:23:46.129Z,18.70
2018-04-27T10:26:13.736Z,18.80
2018-04-27T10:28:41.434Z,18.90
2018-04-27T10:31:09.247Z,18.90
2018-04-27T10:33:36.907Z,18.90
2018-04-27T10:36:04.506Z,19.00
2018-04-27T10:38:32.077Z,18.90
2018-04-27T10:40:59.767Z,18.90
2018-04-27T10:43:28.162Z,18.80
2018-04-27T10:45:56.598Z,19.00
2018-04-27T10:48:24.215Z,19.00
2018-04-27T10:50:51.988Z,19.00
2018-04-27T10:53:19.532Z,19.00
2018-04-27T10:55:47.991Z,19.10
2018-04-27T10:58:15.568Z,19.10
2018-04-27T11:00:43.344Z,19.10
2018-04-27T11:03:10.922Z,19.10
2018-04-27T11:05:38.519Z,19.20
2018-04-27T11:08:06.086Z,19.10
2018-04-27T11:10:33.816Z,19.10
2018-04-27T11:13:01.379Z,19.10
2018-04-27T11:15:28.961Z,19.10
2018-04-27T11:17:56.557Z,19.20
2018-04-27T11:20:24.910Z,19.20
2018-04-27T11:22:52.652Z,19.20
2018-04-27T11:25:20.721Z,19.20
2018-04-27T11:27:48.369Z,19.30
2018-04-27T11:30:15.942Z,19.40
2018-04-27T11:32:43.993Z,19.40
2018-04-27T11:35:12.497Z,19.50
2018-04-27T11:37:40.076Z,19.50
2018-04-27T11:40:07.724Z,19.60
2018-04-27T11:42:35.349Z,19.70
2018-04-27T11:45:02.943Z,19.60
2018-04-27T11:47:30.558Z,19.60
2018-04-27T11:49:58.122Z,19.60
2018-04-27T11:52:26.830Z,19.70
2018-04-27T11:54:54.426Z,19.70
2018-04-27T11:57:21.944Z,19.70
2018-04-27T11:59:49.663Z,19.70
2018-04-27T12:02:17.745Z,19.70
2018-04-27T12:04:45.773Z,19.70
2018-04-27T12:07:13.930Z,19.70
2018-04-27T12:09:42.464Z,19.70
2018-04-27T12:12:10.114Z,19.80
2018-04-27T12:14:37.652Z,19.80
2018-04-27T12:17:05.361Z,19.90
2018-04-27T12:19:34.107Z,19.90
2018-04-27T12:22:01.791Z,19.90
2018-04-27T12:24:29.440Z,20.00
2018-04-27T12:26:57.747Z,20.10
2018-04-27T12:29:25.318Z,20.10
2018-04-27T12:31:53.012Z,20.20
2018-04-27T12:34:21.025Z,20.20
2018-04-27T12:36:48.853Z,20.20
2018-04-27T12:39:16.464Z,20.30
2018-04-27T12:41:45.038Z,20.30
2018-04-27T12:44:12.977Z,20.40
2018-04-27T12:46:40.522Z,20.50
2018-04-27T12:49:08.123Z,20.60
2018-04-27T12:51:35.849Z,20.60
2018-04-27T12:54:03.406Z,20.70
2018-04-27T12:56:31.528Z,20.80
2018-04-27T12:58:59.241Z,20.80
2018-04-27T13:01:26.960Z,20.70
2018-04-27T13:03:55.663Z,20.60
2018-04-27T13:06:23.263Z,20.60
2018-04-27T13:08:50.878Z,20.50
2018-04-27T13:11:19.449Z,20.70
2018-04-27T13:13:47.080Z,20.70
2018-04-27T13:16:15.243Z,20.70
2018-04-27T13:18:42.960Z,20.70
2018-04-27T13:21:10.633Z,20.80
2018-04-27T13:23:38.222Z,20.80
2018-04-27T13:26:05.882Z,20.80
2018-04-27T13:28:33.476Z,20.80
2018-04-27T13:31:01.807Z,20.70
2018-04-27T13:33:29.382Z,20.70
2018-04-27T13:35:56.963Z,20.70
2018-04-27T13:38:24.520Z,20.80
2018-04-27T13:40:52.198Z,20.80
2018-04-27T13:43:19.798Z,20.80
2018-04-27T13:45:47.469Z,20.80
2018-04-27T13:48:15.084Z,20.90
2018-04-27T13:50:42.666Z,20.90
2018-04-27T13:53:10.248Z,21.00
2018-04-27T13:55:38.120Z,21.00
2018-04-27T13:58:05.657Z,21.10
2018-04-27T14:00:33.334Z,21.10
2018-04-27T14:03:01.048Z,21.10
2018-04-27T14:05:29.017Z,21.10
2018-04-27T14:07:56.584Z,21.10
2018-04-27T14:10:24.158Z,21.10
2018-04-27T14:12:51.790Z,21.00
2018-04-27T14:15:19.351Z,21.00
2018-04-27T14:17:47.077Z,21.00
2018-04-27T14:20:14.689Z,21.00
2018-04-27T14:22:42.334Z,21.00
2018-04-27T14:25:09.926Z,21.00
2018-04-27T14:27:37.454Z,21.00
2018-04-27T14:30:05.040Z,21.10
2018-04-27T14:32:32.686Z,21.10
2018-04-27T14:35:02.085Z,21.10
2018-04-27T14:37:29.625Z,21.00
2018-04-27T14:39:57.206Z,21.10
2018-04-27T14:42:24.772Z,21.10
2018-04-27T14:44:52.319Z,21.10
2018-04-27T14:47:19.925Z,21.10
2018-04-27T14:49:48.220Z,21.20
2018-04-27T14:52:15.840Z,21.10
2018-04-27T14:54:43.381Z,21.20
2018-04-27T14:57:11.048Z,21.30
2018-04-27T14:59:38.613Z,21.40
2018-04-27T15:02:06.191Z,21.50
2018-04-27T15:04:34.587Z,21.50
2018-04-27T15:07:02.954Z,21.50
2018-04-27T15:09:31.328Z,21.40
2018-04-27T15:11:59.686Z,21.40
2018-04-27T15:14:27.246Z,21.40
2018-04-27T15:16:54.774Z,21.40
2018-04-27T15:19:22.349Z,21.50
2018-04-27T15:21:49.916Z,21.50
2018-04-27T15:24:17.486Z,21.50
2018-04-27T15:26:45.079Z,21.50
2018-04-27T15:29:13.448Z,21.50
2018-04-27T15:31:41.771Z,21.60
2018-04-27T15:34:09.390Z,21.50
2018-04-27T15:36:37.715Z,21.70
2018-04-27T15:39:06.412Z,21.70
2018-04-27T15:41:33.962Z,21.70
2018-04-27T15:44:01.497Z,21.60
2018-04-27T15:46:29.071Z,21.60
2018-04-27T15:48:56.614Z,21.50
2018-04-27T15:51:24.320Z,21.50
2018-04-27T15:53:51.880Z,21.40
2018-04-27T15:56:19.461Z,21.40
2018-04-27T15:58:46.999Z,21.30
2018-04-27T16:01:14.606Z,21.30
2018-04-27T16:03:42.154Z,21.30
2018-04-27T16:06:10.578Z,21.30
2018-04-27T16:08:38.144Z,21.30
2018-04-27T16:11:05.679Z,21.30
2018-04-27T16:16:31.343Z,21.20
2018-04-27T16:19:02.639Z,21.10
2018-04-27T16:21:30.292Z,21.10
2018-04-27T16:23:58.784Z,21.10
2018-04-27T16:26:35.769Z,21.10
2018-04-27T16:29:04.340Z,21.10
2018-04-27T16:31:32.930Z,21.10
2018-04-27T16:34:00.516Z,21.10
2018-04-27T16:36:28.058Z,21.10
2018-04-27T16:38:55.651Z,21.10
2018-04-27T16:41:23.223Z,21.00
2018-04-27T16:43:50.776Z,21.00
2018-04-27T16:46:18.352Z,21.00
2018-04-27T16:48:45.896Z,21.10
2018-04-27T16:51:13.490Z,21.10
2018-04-27T16:53:41.069Z,21.20
2018-04-27T16:56:09.394Z,21.20
2018-04-27T16:58:36.963Z,21.20
2018-04-27T17:01:05.078Z,21.30
2018-04-27T17:03:32.691Z,21.30
2018-04-27T17:06:00.328Z,21.40
2018-04-27T17:08:27.919Z,21.40
2018-04-27T17:10:55.561Z,21.30
2018-04-27T17:13:23.135Z,21.30
2018-04-27T17:15:50.690Z,21.30
2018-04-27T17:18:18.238Z,21.30
2018-04-27T17:20:45.808Z,21.20
2018-04-27T17:23:13.418Z,21.20
2018-04-27T17:25:41.032Z,21.20
2018-04-27T17:28:08.892Z,21.20
2018-04-27T17:30:36.496Z,21.20
2018-04-27T17:33:04.031Z,21.10
2018-04-27T17:35:31.653Z,21.10
2018-04-27T17:37:59.233Z,21.10
2018-04-27T17:40:26.832Z,21.00
2018-04-27T17:42:54.432Z,21.00
2018-04-27T17:45:21.981Z,20.90
2018-04-27T17:47:50.297Z,20.90
2018-04-27T17:50:17.875Z,20.90
2018-04-27T17:52:45.454Z,20.80
2018-04-27T17:55:13.037Z,20.80
2018-04-27T17:57:41.403Z,20.70
2018-04-27T18:00:10.967Z,20.70
2018-04-27T18:02:38.534Z,20.70
2018-04-27T18:05:06.083Z,20.60
2018-04-27T18:07:33.727Z,20.60
2018-04-27T18:10:02.027Z,20.50
2018-04-27T18:12:29.598Z,20.50
2018-04-27T18:14:57.207Z,20.50
2018-04-27T18:17:24.791Z,20.40
2018-04-27T18:19:52.447Z,20.40
2018-04-27T18:22:20.052Z,20.40
2018-04-27T18:24:47.590Z,20.40
2018-04-27T18:27:15.244Z,20.40
2018-04-27T18:29:42.936Z,20.40
2018-04-27T18:32:10.759Z,20.30
2018-04-27T18:34:38.321Z,20.30
2018-04-27T18:37:05.988Z,20.30
2018-04-27T18:39:33.568Z,20.30
2018-04-27T18:42:01.139Z,20.20
2018-04-27T18:44:28.753Z,20.20
2018-04-27T18:46:56.327Z,20.20
2018-04-27T18:49:23.920Z,20.20
2018-04-27T18:51:51.479Z,20.10
2018-04-27T18:54:19.040Z,20.10
2018-04-27T18:56:46.599Z,20.10
2018-04-27T18:59:14.202Z,20.10
2018-04-27T19:01:41.805Z,20.00
2018-04-27T19:04:10.101Z,20.00
2018-04-27T19:06:37.720Z,20.00
2018-04-27T19:09:05.275Z,20.00
2018-04-27T19:11:32.879Z,20.00
2018-04-27T19:14:00.439Z,20.00
2018-04-27T19:16:28.002Z,19.90
2018-04-27T19:18:56.489Z,19.90
2018-04-27T19:21:24.084Z,19.90
2018-04-27T19:23:51.688Z,19.90
2018-04-27T19:26:20.126Z,19.90
2018-04-27T19:28:48.609Z,19.80
2018-04-27T19:31:16.118Z,19.80
2018-04-27T19:33:43.706Z,19.80
2018-04-27T19:36:12.370Z,19.80
2018-04-27T19:38:39.936Z,19.70
2018-04-27T19:41:07.496Z,19.80
2018-04-27T19:43:35.321Z,19.70
2018-04-27T19:46:02.909Z,19.70
2018-04-27T19:48:30.488Z,19.70
2018-04-27T19:50:58.026Z,19.60
2018-04-27T19:53:25.620Z,19.50
2018-04-27T19:55:53.164Z,19.50
2018-04-27T19:58:20.929Z,19.40
2018-04-27T20:00:48.457Z,19.40
2018-04-27T20:03:16.771Z,19.40
2018-04-27T20:05:44.330Z,19.40
2018-04-27T20:08:12.104Z,19.30
2018-04-27T20:10:44.274Z,19.30
2018-04-27T20:13:14.448Z,19.20
2018-04-27T20:15:42.916Z,19.20
2018-04-27T20:18:12.289Z,19.10
2018-04-27T20:20:42.759Z,19.00
2018-04-27T20:23:10.626Z,19.00
2018-04-27T20:25:39.442Z,18.90
2018-04-27T20:28:07.900Z,18.80
2018-04-27T20:30:35.483Z,18.80
2018-04-27T20:33:03.146Z,18.70
2018-04-27T20:35:30.715Z,18.70
2018-04-27T20:37:59.863Z,18.70
2018-04-27T20:40:27.412Z,18.70
2018-04-27T20:42:54.983Z,18.70
2018-04-27T20:45:23.418Z,18.60
2018-04-27T20:47:50.980Z,18.70
2018-04-27T20:50:25.364Z,18.60
2018-04-27T20:52:54.836Z,18.50
2018-04-27T20:55:22.390Z,18.50
2018-04-27T20:57:50.016Z,18.40
2018-04-27T21:00:18.387Z,18.40
2018-04-27T21:02:46.844Z,18.50
2018-04-27T21:05:14.415Z,18.40
2018-04-27T21:07:41.974Z,18.40
2018-04-27T21:10:10.231Z,18.40
2018-04-27T21:12:37.921Z,18.40
2018-04-27T21:15:05.632Z,18.30
2018-04-27T21:17:33.977Z,18.20
2018-04-27T21:20:01.607Z,18.20
2018-04-27T21:22:29.264Z,18.20
2018-04-27T21:24:56.916Z,18.10
2018-04-27T21:27:24.523Z,18.20
2018-04-27T21:29:52.123Z,18.10
2018-04-27T21:32:19.715Z,18.10
2018-04-27T21:34:47.373Z,18.00
2018-04-27T21:37:14.983Z,18.00
2018-04-27T21:39:43.011Z,18.00
2018-04-27T21:42:13.367Z,17.90
2018-04-27T21:44:44.367Z,17.90
2018-04-27T21:47:20.708Z,17.90
2018-04-27T21:49:49.001Z,18.00
2018-04-27T21:52:17.494Z,17.80
2018-04-27T21:54:45.768Z,17.80
2018-04-27T21:57:20.955Z,17.80
2018-04-27T22:00:06.123Z,17.70
2018-04-27T22:02:54.388Z,17.70
2018-04-27T22:08:31.335Z,17.60
2018-04-27T22:11:17.688Z,17.50
2018-04-27T22:13:45.260Z,17.50
2018-04-27T22:16:19.479Z,17.50
2018-04-27T22:18:47.805Z,17.40
2018-04-27T22:21:15.514Z,17.40
2018-04-27T22:23:43.112Z,17.40
2018-04-27T22:26:11.830Z,17.40
2018-04-27T22:28:54.234Z,17.40
2018-04-27T22:31:27.535Z,17.40
2018-04-27T22:34:06.973Z,17.30
2018-04-27T22:36:37.325Z,17.40
2018-04-27T22:39:20.607Z,17.40
2018-04-27T22:42:02.571Z,17.40
2018-04-27T22:48:06.480Z,17.30
2018-04-27T22:50:34.019Z,17.30
2018-04-27T22:53:01.596Z,17.20
2018-04-27T22:55:30.008Z,17.20
2018-04-27T22:58:00.153Z,17.20
2018-04-27T23:00:37.029Z,17.20
2018-04-27T23:03:04.611Z,17.10
2018-04-27T23:05:33.911Z,17.20
2018-04-27T23:08:02.398Z,17.20
2018-04-27T23:13:27.465Z,17.10
2018-04-27T23:15:58.863Z,17.10
2018-04-27T23:18:41.276Z,17.10
2018-04-27T23:21:08.848Z,17.00
2018-04-27T23:23:36.428Z,17.00
2018-04-27T23:26:04.114Z,16.90
2018-04-27T23:28:31.699Z,17.00
2018-04-27T23:30:59.246Z,17.00
2018-04-27T23:33:26.810Z,16.90
2018-04-27T23:35:55.321Z,16.90
2018-04-27T23:38:23.958Z,16.90
2018-04-27T23:40:52.234Z,16.90
2018-04-27T23:43:20.676Z,16.80
2018-04-27T23:45:48.993Z,16.70
2018-04-27T23:48:16.570Z,16.70
2018-04-27T23:51:02.732Z,16.60
2018-04-27T23:53:31.782Z,16.50
2018-04-27T23:55:59.351Z,16.50
2018-04-27T23:58:26.892Z,16.60
